Time;durP1;ratioP1;P1;durP2;ratioP2;P2;SDS_P1;SDS_P2;PMS_P1;PMS_P2;Temp;Humidity;BMP_temperature;BMP_pressure;BME280_temperature;BME280_humidity;BME280_pressure;Samples;Min_cycle;Max_cycle;Signal;HPM_P1;HPM_P2
2022/10/19 00:00:26;;;;;;;3.50;1.08;;;11.70;99.90;;;;;;4996198;28;20150;-70
2022/10/19 00:02:51;;;;;;;5.78;1.00;;;11.70;99.90;;;;;;5012868;28;20062;-71
2022/10/19 00:05:17;;;;;;;3.58;1.08;;;11.70;99.90;;;;;;4996631;28;20054;-69
2022/10/19 00:07:43;;;;;;;7.65;1.50;;;11.70;99.90;;;;;;4996279;28;20041;-70
2022/10/19 00:10:10;;;;;;;6.47;1.35;;;11.80;99.90;;;;;;5012850;28;20053;-70
2022/10/19 00:12:36;;;;;;;5.28;1.30;;;11.80;99.90;;;;;;4996383;28;20058;-70
2022/10/19 00:15:02;;;;;;;9.15;1.40;;;11.80;99.90;;;;;;4996385;28;20050;-70
2022/10/19 00:17:28;;;;;;;7.20;1.38;;;11.80;99.90;;;;;;5012433;28;20099;-71
2022/10/19 00:19:54;;;;;;;5.78;1.25;;;11.80;99.90;;;;;;5012364;28;20046;-70
2022/10/19 00:22:19;;;;;;;4.45;1.30;;;11.80;99.90;;;;;;5012575;28;20050;-70
2022/10/19 00:24:45;;;;;;;3.63;1.02;;;11.90;99.90;;;;;;5012412;28;20085;-70
2022/10/19 00:27:11;;;;;;;7.93;1.38;;;11.90;99.90;;;;;;5012256;28;20053;-70
2022/10/19 00:29:37;;;;;;;3.20;1.10;;;11.90;99.90;;;;;;4995960;28;20053;-71
2022/10/19 00:32:03;;;;;;;6.47;1.58;;;11.90;99.90;;;;;;5012407;28;20406;-70
2022/10/19 00:34:29;;;;;;;5.75;1.15;;;11.90;99.90;;;;;;5012504;28;20057;-70
2022/10/19 00:36:55;;;;;;;6.82;1.15;;;11.80;99.90;;;;;;4995499;28;20573;-69
2022/10/19 00:39:21;;;;;;;6.10;1.25;;;11.90;99.90;;;;;;5012121;28;20037;-70
2022/10/19 00:41:47;;;;;;;7.22;1.55;;;11.90;99.90;;;;;;4995879;28;20056;-70
2022/10/19 00:44:12;;;;;;;9.02;1.23;;;11.90;99.90;;;;;;4995740;28;20050;-70
2022/10/19 00:46:44;;;;;;;5.05;1.02;;;11.90;99.90;;;;;;5012012;28;20092;-69
2022/10/19 00:49:18;;;;;;;6.68;1.00;;;11.90;99.90;;;;;;5012306;28;20060;-70
2022/10/19 00:51:49;;;;;;;3.92;0.95;;;11.90;99.90;;;;;;5011512;28;20057;-70
2022/10/19 00:54:16;;;;;;;4.75;1.13;;;11.80;99.90;;;;;;5012331;28;20086;-70
2022/10/19 00:56:43;;;;;;;5.10;1.40;;;11.90;99.90;;;;;;5011943;28;20136;-70
2022/10/19 00:59:13;;;;;;;5.88;1.23;;;11.90;99.90;;;;;;4995876;28;20078;-70
2022/10/19 01:01:39;;;;;;;4.57;1.17;;;11.90;99.90;;;;;;4995599;28;20042;-70
2022/10/19 01:04:05;;;;;;;3.58;0.82;;;11.90;99.90;;;;;;4995739;28;20054;-70
2022/10/19 01:06:32;;;;;;;5.07;1.30;;;11.90;99.90;;;;;;4979578;28;20143;-70
2022/10/19 01:08:58;;;;;;;4.93;1.23;;;11.90;99.90;;;;;;5011727;28;20046;-70
2022/10/19 01:11:45;;;;;;;5.10;1.00;;;11.90;99.90;;;;;;5011991;28;20108;-70
2022/10/19 01:14:26;;;;;;;5.38;0.93;;;11.90;99.90;;;;;;5012064;28;20068;-70
2022/10/19 01:17:43;;;;;;;5.68;1.10;;;11.90;99.90;;;;;;5011771;28;20050;-70
2022/10/19 01:20:37;;;;;;;6.43;1.17;;;11.90;99.90;;;;;;5011878;28;20085;-70
2022/10/19 01:23:40;;;;;;;6.13;0.98;;;11.90;99.90;;;;;;5011985;28;20057;-70
2022/10/19 01:26:37;;;;;;;5.45;1.23;;;11.90;99.90;;;;;;5011785;28;20048;-70
2022/10/19 01:29:11;;;;;;;6.20;1.00;;;11.90;99.90;;;;;;4995157;28;20561;-70
2022/10/19 01:31:40;;;;;;;6.38;1.25;;;11.90;99.90;;;;;;5011850;28;20050;-70
2022/10/19 01:34:18;;;;;;;9.85;1.48;;;12.00;99.90;;;;;;5011848;28;20108;-70
2022/10/19 01:36:50;;;;;;;6.40;1.25;;;12.00;99.90;;;;;;5011680;28;20051;-70
2022/10/19 01:39:39;;;;;;;7.65;1.50;;;11.90;99.90;;;;;;5011592;28;20045;-70
2022/10/19 01:42:26;;;;;;;5.20;1.30;;;11.90;99.90;;;;;;5011871;28;20041;-70
2022/10/19 01:45:07;;;;;;;6.47;1.40;;;11.90;99.90;;;;;;5011587;28;20084;-70
2022/10/19 01:47:41;;;;;;;6.57;1.10;;;11.90;99.90;;;;;;5011769;28;20116;-70
2022/10/19 01:50:15;;;;;;;6.90;1.40;;;11.90;99.90;;;;;;5011871;28;20053;-70
2022/10/19 01:52:42;;;;;;;4.25;1.30;;;11.90;99.90;;;;;;4995265;28;20054;-70
2022/10/19 01:55:11;;;;;;;4.82;1.25;;;11.90;99.90;;;;;;5011313;28;20132;-70
2022/10/19 01:57:41;;;;;;;8.80;1.48;;;11.90;99.90;;;;;;5011554;28;20053;-70
2022/10/19 02:00:10;;;;;;;5.43;1.13;;;11.80;99.90;;;;;;4994943;28;20092;-70
2022/10/19 02:02:39;;;;;;;5.38;1.30;;;11.80;99.90;;;;;;5011577;28;20099;-70
2022/10/19 02:05:06;;;;;;;8.05;1.40;;;11.80;99.90;;;;;;4997805;28;20053;-70
2022/10/19 02:07:33;;;;;;;5.55;1.30;;;11.80;99.90;;;;;;5014788;28;20409;-70
2022/10/19 02:09:59;;;;;;;6.78;1.58;;;11.80;99.90;;;;;;5014495;28;20093;-70
2022/10/19 02:12:27;;;;;;;6.15;1.42;;;11.80;99.90;;;;;;5014984;28;20049;-71
2022/10/19 02:14:57;;;;;;;6.30;1.30;;;11.80;99.90;;;;;;4998414;28;20096;-70
2022/10/19 02:17:30;;;;;;;4.05;1.27;;;11.80;99.90;;;;;;5014802;28;20046;-70
2022/10/19 02:19:57;;;;;;;5.00;1.50;;;11.80;99.90;;;;;;4998153;28;20371;-70
2022/10/19 02:22:23;;;;;;;8.02;1.80;;;11.80;99.90;;;;;;4982309;28;20103;-70
2022/10/19 02:24:49;;;;;;;7.10;1.42;;;11.80;99.90;;;;;;5014521;28;20046;-69
2022/10/19 02:27:15;;;;;;;7.60;1.55;;;11.80;99.90;;;;;;4998369;28;20053;-70
2022/10/19 02:29:41;;;;;;;4.68;1.33;;;11.70;99.90;;;;;;4997884;28;20046;-70
2022/10/19 02:32:08;;;;;;;6.43;1.15;;;11.70;99.90;;;;;;4998092;28;20120;-70
2022/10/19 02:34:35;;;;;;;4.68;1.27;;;11.60;99.90;;;;;;5014280;28;20085;-70
2022/10/19 02:37:01;;;;;;;5.78;1.23;;;11.60;99.90;;;;;;5014282;28;20053;-70
2022/10/19 02:39:27;;;;;;;5.57;1.20;;;11.60;99.90;;;;;;5014265;28;20390;-70
2022/10/19 02:41:57;;;;;;;6.45;1.58;;;11.60;99.90;;;;;;4997755;28;20466;-70
2022/10/19 02:44:32;;;;;;;5.80;1.20;;;11.50;99.90;;;;;;5014218;28;20129;-70
2022/10/19 02:47:09;;;;;;;12.30;1.25;;;11.50;99.90;;;;;;5014156;28;20054;-70
2022/10/19 02:49:36;;;;;;;6.18;1.23;;;11.50;99.90;;;;;;4997997;28;20042;-70
2022/10/19 02:52:05;;;;;;;8.52;1.40;;;11.40;99.90;;;;;;5013990;28;20062;-70
2022/10/19 02:54:31;;;;;;;6.97;1.10;;;11.40;99.90;;;;;;5014147;28;20045;-70
2022/10/19 02:56:57;;;;;;;4.57;1.00;;;11.40;99.90;;;;;;4997616;28;20394;-70
2022/10/19 02:59:23;;;;;;;13.18;1.33;;;11.50;99.90;;;;;;5013849;28;20089;-70
2022/10/19 03:01:49;;;;;;;7.00;0.98;;;11.50;99.90;;;;;;5013970;28;20038;-70
2022/10/19 03:04:15;;;;;;;5.85;1.27;;;11.50;99.90;;;;;;4997350;28;20107;-70
2022/10/19 03:06:41;;;;;;;7.25;1.25;;;11.60;99.90;;;;;;4981422;28;20056;-70
2022/10/19 03:09:07;;;;;;;7.30;1.30;;;11.60;99.90;;;;;;5013255;28;20045;-70
2022/10/19 03:11:32;;;;;;;6.38;1.20;;;11.60;99.90;;;;;;5013593;28;20050;-70
2022/10/19 03:13:58;;;;;;;6.55;1.60;;;11.60;99.90;;;;;;5013396;28;20048;-70
2022/10/19 03:16:24;;;;;;;10.02;1.55;;;11.60;99.90;;;;;;4997058;28;20053;-70
2022/10/19 03:18:50;;;;;;;9.25;1.50;;;11.60;99.90;;;;;;5014253;28;20046;-70
2022/10/19 03:21:17;;;;;;;9.48;1.50;;;11.60;99.90;;;;;;5013347;28;20054;-70
2022/10/19 03:23:43;;;;;;;7.80;1.60;;;11.60;99.90;;;;;;4997295;28;20054;-70
2022/10/19 03:26:13;;;;;;;9.45;1.20;;;11.60;99.90;;;;;;5013427;28;20049;-70
2022/10/19 03:28:39;;;;;;;7.68;1.10;;;11.50;99.90;;;;;;4996920;28;20093;-70
2022/10/19 03:31:05;;;;;;;4.82;1.05;;;11.50;99.90;;;;;;4996975;28;20112;-70
2022/10/19 03:33:30;;;;;;;7.22;1.30;;;11.40;99.90;;;;;;5013459;28;20042;-70
2022/10/19 03:36:35;;;;;;;8.43;1.35;;;11.30;99.90;;;;;;4996880;28;20491;-69
2022/10/19 03:39:04;;;;;;;4.75;1.50;;;11.20;99.90;;;;;;4995328;28;20038;-70
2022/10/19 03:41:32;;;;;;;7.97;1.55;;;11.10;99.90;;;;;;5009992;28;20557;-70
2022/10/19 03:43:58;;;;;;;9.25;1.30;;;11.00;99.90;;;;;;4996683;28;20050;-70
2022/10/19 03:46:24;;;;;;;9.85;1.40;;;11.00;99.90;;;;;;5013185;28;20050;-70
2022/10/19 03:48:50;;;;;;;9.23;1.30;;;11.00;99.90;;;;;;5013166;28;20093;-70
2022/10/19 03:51:19;;;;;;;6.85;1.45;;;11.00;99.90;;;;;;4996471;28;20096;-70
2022/10/19 03:53:46;;;;;;;12.88;1.40;;;10.90;99.90;;;;;;5013043;28;20057;-70
2022/10/19 03:56:17;;;;;;;11.30;1.30;;;11.00;99.90;;;;;;5012857;28;20042;-70
2022/10/19 03:58:45;;;;;;;7.82;1.30;;;11.00;99.90;;;;;;5012677;28;20052;-70
2022/10/19 07:10:08;;;;;;;4.38;0.93;;;12.00;99.90;;;;;;5003174;23;20067;-72
2022/10/19 07:12:34;;;;;;;8.20;1.30;;;12.00;99.90;;;;;;4956755;28;20428;-71
2022/10/19 07:15:27;;;;;;;8.75;1.35;;;12.10;99.90;;;;;;4958707;28;20076;-71
2022/10/19 07:17:53;;;;;;;7.97;1.08;;;12.10;99.90;;;;;;4973257;28;20051;-71
2022/10/19 07:21:16;;;;;;;5.57;1.08;;;12.10;99.90;;;;;;4958150;28;20050;-71
2022/10/19 07:26:53;;;;;;;;;;;12.20;99.90;;;;;;4958701;28;19922;-71
2022/10/19 07:29:18;;;;;;;4.32;1.05;;;12.20;99.90;;;;;;4941578;28;19922;-71
2022/10/19 07:31:44;;;;;;;4.45;1.27;;;12.20;99.90;;;;;;4941775;28;20066;-71
2022/10/19 07:34:12;;;;;;;5.47;1.20;;;12.30;99.90;;;;;;4958390;28;20138;-71
2022/10/19 07:36:38;;;;;;;7.88;1.20;;;12.30;99.90;;;;;;4957981;28;20125;-71
2022/10/19 07:39:06;;;;;;;7.45;1.40;;;12.40;99.90;;;;;;4941944;28;20450;-71
2022/10/19 07:41:33;;;;;;;5.10;1.20;;;12.50;99.90;;;;;;4941915;28;20131;-71
2022/10/19 07:44:00;;;;;;;7.15;1.27;;;12.50;99.90;;;;;;4974269;28;20043;-71
2022/10/19 07:46:32;;;;;;;8.63;1.40;;;12.60;99.90;;;;;;4957602;28;20050;-72
2022/10/19 07:48:58;;;;;;;;;;;12.60;99.90;;;;;;4942308;28;20113;-71
2022/10/19 07:51:23;;;;;;;12.98;1.30;;;12.60;99.90;;;;;;4941743;28;20279;-71
2022/10/19 07:53:49;;;;;;;7.93;1.20;;;12.70;99.90;;;;;;4957664;28;20046;-71
2022/10/19 07:56:17;;;;;;;8.18;1.20;;;12.80;99.90;;;;;;4973658;28;20510;-71
2022/10/19 07:58:43;;;;;;;10.38;1.58;;;12.80;99.90;;;;;;4957527;28;20042;-72
2022/10/19 08:01:12;;;;;;;11.20;1.42;;;12.90;99.90;;;;;;4957525;28;20038;-71
2022/10/19 08:03:38;;;;;;;5.53;1.23;;;12.90;99.90;;;;;;4941636;28;20051;-71
2022/10/19 08:06:07;;;;;;;8.75;1.17;;;13.00;99.90;;;;;;4957792;28;20154;-71
2022/10/19 08:08:34;;;;;;;11.05;1.50;;;13.00;99.90;;;;;;4957712;28;20050;-71
2022/10/19 08:11:11;;;;;;;8.88;1.38;;;13.10;99.90;;;;;;4964114;28;20054;-71
2022/10/19 08:13:37;;;;;;;11.25;1.27;;;13.10;99.90;;;;;;4960643;28;20050;-72
2022/10/19 08:16:04;;;;;;;7.50;1.25;;;13.10;99.90;;;;;;4976607;28;20062;-71
2022/10/19 08:18:30;;;;;;;8.57;1.02;;;13.20;99.90;;;;;;4959952;28;20411;-71
2022/10/19 08:20:56;;;;;;;7.90;1.10;;;13.20;99.90;;;;;;4975822;28;20049;-71
2022/10/19 08:23:22;;;;;;;9.27;1.50;;;13.30;99.90;;;;;;4615686;28;9999717;-71
2022/10/19 08:25:48;;;;;;;3.67;0.90;;;13.30;99.90;;;;;;4938894;28;20047;-71
2022/10/19 08:28:14;;;;;;;8.07;1.50;;;13.40;99.90;;;;;;4950022;28;20054;-71
2022/10/19 08:30:40;;;;;;;11.15;1.67;;;13.40;99.90;;;;;;4957348;28;20104;-71
2022/10/19 08:33:07;;;;;;;5.25;1.20;;;13.50;99.90;;;;;;4958196;28;20089;-71
2022/10/19 08:35:34;;;;;;;7.68;1.30;;;13.60;99.90;;;;;;4957732;28;20415;-71
2022/10/19 08:38:00;;;;;;;12.07;1.27;;;13.60;99.90;;;;;;4957823;28;20085;-72
2022/10/19 08:40:28;;;;;;;9.68;1.23;;;13.70;99.90;;;;;;4957213;28;20407;-72
2022/10/19 08:43:16;;;;;;;9.23;1.30;;;13.70;99.90;;;;;;4957825;28;20034;-71
2022/10/19 08:45:57;;;;;;;5.10;1.30;;;13.70;99.90;;;;;;4957497;28;20129;-71
2022/10/19 08:48:25;;;;;;;6.30;1.00;;;13.80;99.90;;;;;;4973625;28;20670;-71
2022/10/19 08:50:52;;;;;;;9.15;1.42;;;13.80;99.90;;;;;;4973673;28;20046;-71
2022/10/19 08:53:56;;;;;;;8.20;1.30;;;13.80;99.90;;;;;;4957951;28;20069;-71
2022/10/19 08:56:43;;;;;;;6.88;1.20;;;13.80;99.90;;;;;;4929652;29;20051;-71
2022/10/19 08:59:25;;;;;;;9.20;1.67;;;13.90;99.90;;;;;;4957531;28;20054;-71
2022/10/19 09:01:56;;;;;;;7.28;1.00;;;13.90;99.90;;;;;;4983877;28;20543;-71
2022/10/19 09:04:33;;;;;;;8.82;1.10;;;13.90;99.90;;;;;;4983702;28;20050;-72
2022/10/19 09:07:23;;;;;;;5.55;0.85;;;14.00;99.90;;;;;;4973432;28;20038;-72
2022/10/19 09:10:24;;;;;;;4.68;1.30;;;14.10;99.90;;;;;;4988447;28;20108;-71
2022/10/19 09:13:01;;;;;;;7.18;1.15;;;14.10;99.90;;;;;;4947627;28;20046;-72
2022/10/19 09:15:41;;;;;;;7.55;1.20;;;14.10;99.90;;;;;;4944470;28;20050;-72
2022/10/19 09:18:29;;;;;;;6.78;0.95;;;14.10;99.90;;;;;;4977135;28;20097;-72
2022/10/19 09:21:21;;;;;;;10.05;1.25;;;14.20;99.90;;;;;;4974165;28;20060;-71
2022/10/19 09:24:17;;;;;;;7.47;1.17;;;14.30;99.90;;;;;;4945739;28;20105;-71
2022/10/19 09:26:52;;;;;;;6.13;1.15;;;14.30;99.90;;;;;;4983666;28;20142;-71
2022/10/19 09:29:40;;;;;;;6.03;1.30;;;14.40;99.90;;;;;;4959463;28;20490;-72
2022/10/19 09:32:14;;;;;;;5.20;1.00;;;14.50;99.90;;;;;;4981963;28;20604;-71
2022/10/19 09:34:53;;;;;;;4.43;1.42;;;14.60;99.90;;;;;;4978200;28;20050;-71
2022/10/19 09:37:20;;;;;;;6.53;0.90;;;14.60;99.90;;;;;;4976197;28;20076;-72
2022/10/19 09:39:46;;;;;;;5.47;0.95;;;14.60;99.90;;;;;;4979516;28;20117;-72
2022/10/19 09:42:35;;;;;;;7.03;1.02;;;14.70;99.90;;;;;;4976593;28;20448;-71
2022/10/19 09:45:18;;;;;;;4.75;1.13;;;14.70;99.90;;;;;;4992949;28;20486;-72
2022/10/19 09:47:47;;;;;;;7.50;1.00;;;14.70;99.90;;;;;;4960602;28;20058;-71
2022/10/19 09:50:21;;;;;;;10.00;1.40;;;14.70;99.90;;;;;;4957129;28;20042;-71
2022/10/19 09:53:02;;;;;;;5.05;1.00;;;14.70;99.90;;;;;;4958680;28;20495;-75
2022/10/19 09:55:33;;;;;;;7.47;1.30;;;14.70;99.90;;;;;;4959664;28;20461;-71
2022/10/19 09:58:19;;;;;;;6.63;1.15;;;14.70;99.90;;;;;;4978091;28;20545;-71
2022/10/19 10:00:51;;;;;;;4.53;1.25;;;14.70;99.90;;;;;;4958842;28;20137;-71
2022/10/19 10:03:25;;;;;;;5.43;1.15;;;14.80;99.90;;;;;;4976588;28;20077;-71
2022/10/19 10:05:51;;;;;;;7.55;1.20;;;14.70;99.90;;;;;;4979172;28;20073;-71
2022/10/19 10:08:20;;;;;;;7.32;1.30;;;14.70;99.90;;;;;;4953822;28;20051;-71
2022/10/19 10:11:10;;;;;;;7.13;1.20;;;14.70;99.90;;;;;;4964729;28;20062;-71
2022/10/19 10:13:42;;;;;;;7.50;1.10;;;14.60;99.90;;;;;;4951011;28;20069;-72
2022/10/19 10:16:16;;;;;;;7.63;1.90;;;14.60;99.90;;;;;;4971802;28;20056;-71
2022/10/19 10:18:54;;;;;;;6.95;1.40;;;14.70;99.90;;;;;;4982007;28;20508;-72
2022/10/19 10:21:26;;;;;;;9.77;1.38;;;14.60;99.90;;;;;;4998583;28;20053;-71
2022/10/19 10:24:15;;;;;;;5.72;1.25;;;14.70;99.90;;;;;;4997723;28;20120;-71
2022/10/19 10:26:53;;;;;;;10.35;1.33;;;14.70;99.90;;;;;;4982227;28;20060;-71
2022/10/19 10:29:28;;;;;;;9.50;1.33;;;14.70;99.90;;;;;;4981973;28;20054;-71
2022/10/19 10:32:07;;;;;;;4.10;0.90;;;14.80;99.90;;;;;;4982216;28;20057;-71
2022/10/19 10:34:33;;;;;;;6.78;1.05;;;14.70;99.90;;;;;;4998057;28;20105;-71
2022/10/19 10:37:00;;;;;;;5.53;1.00;;;14.60;99.90;;;;;;4997680;28;20054;-71
2022/10/19 10:39:27;;;;;;;6.38;1.10;;;14.70;99.90;;;;;;4997897;28;20193;-71
2022/10/19 10:41:55;;;;;;;7.57;1.02;;;14.70;99.90;;;;;;4981848;28;20100;-72
2022/10/19 10:44:25;;;;;;;6.15;1.27;;;14.70;99.90;;;;;;4981619;28;20127;-71
2022/10/19 10:46:59;;;;;;;7.55;1.10;;;14.70;99.90;;;;;;4997980;28;20061;-72
2022/10/19 10:49:34;;;;;;;6.18;1.10;;;14.60;99.90;;;;;;4981690;28;20063;-71
2022/10/19 10:52:11;;;;;;;10.43;1.50;;;14.60;99.90;;;;;;4997778;28;20502;-71
2022/10/19 10:54:37;;;;;;;6.70;1.08;;;14.60;99.90;;;;;;5014232;28;20133;-71
2022/10/19 10:57:19;;;;;;;7.45;1.30;;;14.70;99.90;;;;;;4981427;28;20081;-71
2022/10/19 10:59:52;;;;;;;7.30;1.05;;;14.70;99.90;;;;;;4981399;28;20137;-71
2022/10/19 11:02:34;;;;;;;6.32;1.20;;;14.80;99.90;;;;;;4981223;28;20412;-71
2022/10/19 11:05:35;;;;;;;8.02;1.45;;;14.80;99.90;;;;;;4997420;28;20054;-74
2022/10/19 11:08:23;;;;;;;5.23;1.40;;;14.90;99.90;;;;;;4997179;28;20185;-71
2022/10/19 11:11:07;;;;;;;5.80;1.10;;;15.00;99.90;;;;;;4980908;28;20123;-71
2022/10/19 11:13:47;;;;;;;7.22;1.48;;;15.00;99.90;;;;;;4981451;28;20050;-71
2022/10/19 11:16:18;;;;;;;6.85;1.73;;;15.10;99.90;;;;;;4981189;28;20050;-71
2022/10/19 11:18:49;;;;;;;6.28;1.30;;;15.10;99.90;;;;;;4981170;28;20042;-71
2022/10/19 11:21:23;;;;;;;4.97;1.40;;;15.00;99.90;;;;;;4997168;28;20057;-71
2022/10/19 11:24:07;;;;;;;5.15;1.33;;;15.20;99.90;;;;;;4997386;28;20299;-71
2022/10/19 11:27:02;;;;;;;9.32;2.08;;;15.10;99.90;;;;;;4997297;28;20053;-71
2022/10/19 11:29:37;;;;;;;7.25;1.70;;;15.20;99.90;;;;;;4981124;28;20049;-71
2022/10/19 11:32:09;;;;;;;8.07;1.85;;;15.10;99.90;;;;;;4997189;28;20096;-74
2022/10/19 11:34:53;;;;;;;5.00;1.67;;;15.30;99.90;;;;;;4981051;28;20085;-71
2022/10/19 11:37:32;;;;;;;7.43;1.65;;;15.50;99.90;;;;;;4996516;28;20045;-71
2022/10/19 11:40:25;;;;;;;5.60;1.50;;;15.60;99.90;;;;;;4980631;28;20057;-71
2022/10/19 11:43:28;;;;;;;7.32;1.48;;;15.60;99.90;;;;;;4996903;28;20104;-71
2022/10/19 11:46:08;;;;;;;7.32;1.60;;;15.60;99.90;;;;;;4980672;28;20042;-71
2022/10/19 11:48:48;;;;;;;6.43;1.40;;;15.60;99.90;;;;;;5013324;28;20055;-71
2022/10/19 11:51:28;;;;;;;4.82;1.13;;;15.70;99.90;;;;;;4996648;28;20137;-71
2022/10/19 11:54:12;;;;;;;6.18;1.30;;;15.70;99.90;;;;;;5013263;28;20068;-71
2022/10/19 11:56:40;;;;;;;7.90;1.50;;;15.60;99.90;;;;;;4996484;28;20438;-71
2022/10/19 11:59:17;;;;;;;2.90;1.00;;;15.40;99.90;;;;;;4979907;28;20076;-71
2022/10/19 12:02:00;;;;;;;6.55;1.02;;;15.40;99.90;;;;;;4980439;28;20046;-71
2022/10/19 12:04:41;;;;;;;8.70;1.45;;;15.60;99.90;;;;;;4996241;28;20054;-72
2022/10/19 12:07:35;;;;;;;5.13;1.38;;;15.70;99.90;;;;;;4996584;28;20046;-71
2022/10/19 12:10:04;;;;;;;5.70;1.50;;;16.00;99.90;;;;;;4980295;28;20129;-72
2022/10/19 12:12:35;;;;;;;6.00;1.33;;;16.90;99.90;;;;;;4979400;28;20058;-72
2022/10/19 12:15:30;;;;;;;4.45;1.15;;;17.50;99.90;;;;;;4996558;28;20046;-71
2022/10/19 12:18:02;;;;;;;5.57;1.20;;;17.70;99.90;;;;;;4996186;28;20418;-72
2022/10/19 12:20:34;;;;;;;4.13;1.00;;;17.00;99.90;;;;;;4995820;28;20050;-71
2022/10/19 12:23:30;;;;;;;7.85;1.73;;;16.90;99.90;;;;;;4996087;28;20049;-71
2022/10/19 12:25:59;;;;;;;3.70;1.25;;;16.70;99.90;;;;;;4993177;28;20061;-71
2022/10/19 12:28:28;;;;;;;7.63;1.50;;;16.20;99.90;;;;;;4995982;28;20077;-71
2022/10/19 12:30:56;;;;;;;5.72;1.60;;;16.20;99.90;;;;;;4979952;28;20046;-71
2022/10/19 12:33:52;;;;;;;5.90;1.40;;;16.10;99.90;;;;;;4995963;28;20038;-71
2022/10/19 12:36:46;;;;;;;4.93;1.30;;;16.00;99.90;;;;;;4995828;28;20064;-68
2022/10/19 12:39:27;;;;;;;7.70;1.50;;;15.90;99.90;;;;;;4995679;28;20153;-69
2022/10/19 12:41:57;;;;;;;4.90;1.27;;;15.80;99.90;;;;;;4996031;28;20493;-69
2022/10/19 12:44:43;;;;;;;2.57;1.20;;;15.70;99.90;;;;;;4995857;28;20081;-69
2022/10/19 12:47:10;;;;;;;7.88;1.35;;;15.60;99.90;;;;;;4995309;28;20133;-69
2022/10/19 12:49:45;;;;;;;7.38;1.50;;;15.60;99.90;;;;;;4995338;28;20085;-71
2022/10/19 12:52:13;;;;;;;5.70;1.30;;;15.50;99.90;;;;;;4979676;28;20045;-72
2022/10/19 12:54:42;;;;;;;4.47;1.13;;;15.50;99.90;;;;;;4979764;28;20049;-71
2022/10/19 12:57:24;;;;;;;5.82;1.55;;;15.50;99.90;;;;;;4995858;28;20073;-71
2022/10/19 13:00:20;;;;;;;6.03;1.50;;;15.60;99.90;;;;;;4995580;28;20490;-71
2022/10/19 13:02:54;;;;;;;6.30;1.25;;;16.00;99.90;;;;;;4995828;28;20054;-71
2022/10/19 13:05:26;;;;;;;3.10;1.17;;;16.80;99.90;;;;;;4995668;28;20433;-71
2022/10/19 13:07:52;;;;;;;6.95;1.23;;;17.00;99.90;;;;;;4995839;28;20038;-72
2022/10/19 13:10:21;;;;;;;5.25;1.35;;;17.30;99.90;;;;;;5008421;28;20054;-72
2022/10/19 13:12:48;;;;;;;7.28;1.38;;;17.30;99.90;;;;;;4976271;28;20395;-71
2022/10/19 13:15:32;;;;;;;5.53;1.30;;;18.00;99.90;;;;;;4959905;28;20442;-71
2022/10/19 13:17:58;;;;;;;4.95;1.38;;;18.90;99.90;;;;;;4976176;28;20101;-71
2022/10/19 13:20:24;;;;;;;7.65;1.40;;;19.50;99.90;;;;;;4975458;28;20057;-71
2022/10/19 13:22:59;;;;;;;4.90;1.20;;;20.40;99.90;;;;;;4976196;28;20039;-71
2022/10/19 13:25:27;;;;;;;6.07;2.30;;;20.50;99.90;;;;;;4959528;28;20582;-69
2022/10/19 13:28:09;;;;;;;6.18;1.00;;;21.10;99.90;;;;;;4976232;28;20125;-71
2022/10/19 13:30:36;;;;;;;3.65;1.13;;;21.70;99.90;;;;;;4959844;28;20051;-70
2022/10/19 13:33:24;;;;;;;5.10;1.20;;;21.50;99.50;;;;;;4975824;28;20487;-71
2022/10/19 13:36:09;;;;;;;6.57;1.42;;;21.80;95.30;;;;;;4975294;28;20375;-71
2022/10/19 13:38:54;;;;;;;10.40;1.48;;;21.70;92.50;;;;;;4975503;28;20042;-70
2022/10/19 13:41:44;;;;;;;4.53;1.33;;;22.20;91.10;;;;;;4975651;28;20047;-72
2022/10/19 13:44:17;;;;;;;4.00;1.20;;;22.10;90.70;;;;;;4959842;28;20047;-70
2022/10/19 13:47:11;;;;;;;4.78;1.33;;;22.10;93.10;;;;;;4959627;28;20049;-70
2022/10/19 13:50:44;;;;;;;5.20;1.30;;;22.70;90.20;;;;;;4975367;28;20407;-70
2022/10/19 13:53:28;;;;;;;4.80;1.20;;;23.00;84.20;;;;;;4887585;29;20548;-70
2022/10/19 13:56:16;;;;;;;7.93;2.10;;;22.90;79.50;;;;;;4951809;28;20066;-70
2022/10/19 13:59:14;;;;;;;6.03;1.58;;;22.30;84.00;;;;;;4960294;28;20121;-71
2022/10/19 14:01:59;;;;;;;5.28;1.30;;;21.90;80.70;;;;;;4982306;28;20463;-71
2022/10/19 14:04:50;;;;;;;3.80;1.70;;;21.60;81.30;;;;;;4978855;28;20069;-70
2022/10/19 14:07:30;;;;;;;6.93;2.42;;;21.40;82.70;;;;;;4962859;28;20491;-71
2022/10/19 14:10:16;;;;;;;5.03;1.90;;;20.80;82.70;;;;;;4963174;28;20140;-70
2022/10/19 14:12:43;;;;;;;5.40;2.45;;;20.80;84.00;;;;;;4978697;28;20058;-70
2022/10/19 14:15:26;;;;;;;9.02;2.90;;;20.80;88.80;;;;;;4963110;28;20044;-70
2022/10/19 14:17:52;;;;;;;5.97;2.67;;;20.90;88.60;;;;;;4962540;28;20054;-70
2022/10/19 14:20:30;;;;;;;4.43;2.38;;;21.10;89.80;;;;;;4962757;28;20053;-70
2022/10/19 14:22:57;;;;;;;5.60;2.50;;;21.10;85.70;;;;;;4979090;28;20074;-70
2022/10/19 14:25:26;;;;;;;7.32;3.17;;;20.40;87.90;;;;;;4978913;28;20514;-70
2022/10/19 14:28:05;;;;;;;6.70;3.20;;;20.20;88.20;;;;;;4978923;28;20612;-70
2022/10/19 14:30:34;;;;;;;5.78;2.72;;;19.70;90.30;;;;;;4962441;28;20476;-70
2022/10/19 14:33:06;;;;;;;7.22;3.17;;;19.60;90.00;;;;;;4962732;28;20057;-70
2022/10/19 14:35:37;;;;;;;7.97;2.90;;;19.40;91.10;;;;;;4962606;28;20050;-71
2022/10/19 14:38:14;;;;;;;7.97;2.92;;;19.40;92.20;;;;;;4947023;28;20061;-71
2022/10/19 14:40:40;;;;;;;5.75;2.80;;;19.20;91.40;;;;;;4961937;28;20446;-71
2022/10/19 14:43:23;;;;;;;4.43;3.00;;;19.30;92.70;;;;;;4962279;28;20043;-70
2022/10/19 14:46:09;;;;;;;7.85;3.35;;;19.70;91.50;;;;;;4980896;28;20042;-71
2022/10/19 14:48:40;;;;;;;4.57;2.70;;;20.00;92.00;;;;;;4637536;28;10000128;-72
2022/10/19 14:51:14;;;;;;;4.35;2.65;;;19.70;91.70;;;;;;4971630;28;20046;-71
2022/10/19 14:53:49;;;;;;;4.72;2.67;;;19.60;91.30;;;;;;4973686;28;20050;-71
2022/10/19 14:56:27;;;;;;;8.10;2.85;;;19.60;92.40;;;;;;4990799;28;20439;-71
2022/10/19 14:58:58;;;;;;;8.48;3.45;;;19.70;92.60;;;;;;4990604;28;20502;-71
2022/10/19 15:01:23;;;;;;;5.88;3.47;;;19.70;92.40;;;;;;4958953;28;20078;-71
2022/10/19 15:03:50;;;;;;;8.38;3.47;;;19.70;92.50;;;;;;4985849;28;20074;-71
2022/10/19 15:06:29;;;;;;;7.13;3.60;;;19.50;92.40;;;;;;4959031;28;20034;-71
2022/10/19 15:09:05;;;;;;;6.10;4.05;;;19.40;93.00;;;;;;4957884;28;20536;-70
2022/10/19 15:11:45;;;;;;;8.82;4.20;;;19.10;93.30;;;;;;4971700;28;20058;-71
2022/10/19 15:14:15;;;;;;;8.40;4.93;;;18.90;93.80;;;;;;4974375;28;20074;-71
2022/10/19 15:16:59;;;;;;;6.38;4.80;;;18.70;94.50;;;;;;4973801;28;20061;-70
2022/10/19 15:19:31;;;;;;;6.88;4.65;;;18.90;95.70;;;;;;4958383;28;20046;-71
2022/10/19 15:22:18;;;;;;;7.22;4.65;;;18.90;95.60;;;;;;4990618;28;20050;-72
2022/10/19 15:25:20;;;;;;;7.80;4.82;;;18.90;95.30;;;;;;4958238;28;20054;-70
2022/10/19 15:27:48;;;;;;;7.72;4.57;;;18.50;95.70;;;;;;4974457;28;20054;-71
2022/10/19 15:30:17;;;;;;;7.53;5.47;;;18.10;96.30;;;;;;4959134;28;20486;-71
2022/10/19 15:32:50;;;;;;;7.88;5.05;;;17.70;96.70;;;;;;4989928;28;20046;-71
2022/10/19 15:35:33;;;;;;;5.60;4.25;;;17.30;98.30;;;;;;4989008;28;20050;-71
2022/10/19 15:38:13;;;;;;;8.75;4.57;;;17.00;99.40;;;;;;4958076;28;20042;-71
2022/10/19 15:40:41;;;;;;;9.83;4.90;;;16.50;99.90;;;;;;4989009;28;20042;-71
2022/10/19 15:43:29;;;;;;;8.23;5.00;;;16.10;99.90;;;;;;4967442;28;20296;-71
2022/10/19 15:46:24;;;;;;;9.98;5.03;;;15.90;99.90;;;;;;4990598;28;20078;-71
2022/10/19 15:48:53;;;;;;;7.68;4.70;;;15.60;99.90;;;;;;4971982;28;20046;-71
2022/10/19 15:51:24;;;;;;;7.70;4.22;;;15.20;99.90;;;;;;4990950;28;20050;-71
2022/10/19 15:53:59;;;;;;;5.93;4.30;;;15.00;99.90;;;;;;4958563;28;20062;-71
2022/10/19 15:56:27;;;;;;;9.35;4.60;;;14.90;99.90;;;;;;4939729;28;20046;-71
2022/10/19 15:58:55;;;;;;;8.57;4.72;;;14.60;99.90;;;;;;4958368;28;20046;-70
2022/10/19 16:01:27;;;;;;;5.70;4.30;;;14.50;99.90;;;;;;4958450;28;20518;-71
2022/10/19 16:03:53;;;;;;;8.32;4.53;;;14.30;99.90;;;;;;4974441;28;20479;-71
2022/10/19 16:06:21;;;;;;;8.65;4.22;;;14.10;99.90;;;;;;4957947;28;20046;-70
2022/10/19 16:08:47;;;;;;;7.97;3.50;;;14.00;99.90;;;;;;4974408;28;20046;-71
2022/10/19 16:11:17;;;;;;;8.93;3.83;;;13.80;99.90;;;;;;4954694;28;20360;-71
2022/10/19 16:13:44;;;;;;;7.65;4.15;;;13.70;99.90;;;;;;4965866;28;20166;-70
2022/10/19 16:16:19;;;;;;;7.53;3.63;;;13.50;99.90;;;;;;4954176;28;20514;-72
2022/10/19 16:18:45;;;;;;;7.20;3.80;;;13.40;99.90;;;;;;4954482;28;20461;-71
2022/10/19 16:21:11;;;;;;;9.52;4.03;;;13.20;99.90;;;;;;4971064;28;20047;-71
2022/10/19 16:23:37;;;;;;;6.78;3.60;;;13.10;99.90;;;;;;4954076;28;20105;-71
2022/10/19 16:26:04;;;;;;;5.63;4.03;;;13.00;99.90;;;;;;4967261;28;20050;-71
2022/10/19 16:28:30;;;;;;;8.27;3.55;;;12.90;99.90;;;;;;4970612;28;20082;-72
2022/10/19 16:30:56;;;;;;;9.57;3.80;;;12.90;99.90;;;;;;4964229;28;20535;-72
2022/10/19 16:33:22;;;;;;;6.55;3.33;;;12.70;99.90;;;;;;4954012;28;20051;-71